Главная страница
METAR-TAF:

METAR-TAF

Аэропорты :

Ashtabula County Airport

Ashtabula, Огайо, США

широта: 41-46-46N, долгота: 080-41-48W, высота над уровнем моря: 281 м

Текущие метеонаблюдения

Эта сводка был подготовлена 19 минут назад, в 16:37 UTC
Ветер 11 Узел от юго-юго-восточный с порывами до 22 Узел
Температура 0°C
Влажность 93%
Давление 1013 hPa
Видимость: 8.0 км
Рассеянная облачность на высоте 900 фута
Рассеянная облачность на высоте 2400 фута
Сплошная облачность на высоте 3700 фута
неизвестно, дымка

METAR: KHZY 181637Z AUTO 16011G22KT 5SM UP BR BKN009 BKN024 OVC037 00/M01 A2991 RMK AO2 T00001011 PNO $

Время: 11:56 (16:56 UTC)


TAF: отсутствует

Метеонаблюдения и прогнозы для более 4000 аэропортов (сводки METAR и TAF).

Имеющиеся станции представлены на карте желтыми и красными точками.

Чтобы увидеть название станции, наведите на нее мышь.

Затем щелкните, чтобы увидеть метеонаблюдения и метеопрогнозы.

Управление картой: чтобы увеличить масштаб, щелкните зеленые кнопки с черным крестиком; чтобы уменьшить масштаб, щелкните зеленую кнопку с тире; для просмотра соседних карт щелкайте зеленые стрелки.


METAR-TAF: